createdAt,value
2023-03-24T00:01:25.544Z,2.63
2023-03-24T00:03:53.142Z,2.70
2023-03-24T00:06:22.678Z,2.60
2023-03-24T00:08:50.328Z,2.50
2023-03-24T00:11:18.894Z,2.40
2023-03-24T00:13:47.189Z,2.60
2023-03-24T00:16:16.907Z,2.47
2023-03-24T00:18:44.502Z,2.50
2023-03-24T00:21:13.431Z,2.57
2023-03-24T00:23:43.533Z,2.63
2023-03-24T00:26:15.062Z,2.60
2023-03-24T00:28:48.226Z,2.60
2023-03-24T00:31:17.880Z,2.63
2023-03-24T00:33:50.863Z,2.57
2023-03-24T00:36:22.964Z,2.60
2023-03-24T00:38:50.717Z,2.80
2023-03-24T00:41:20.370Z,2.60
2023-03-24T00:43:50.218Z,2.77
2023-03-24T00:46:27.810Z,2.70
2023-03-24T00:49:05.387Z,2.70
2023-03-24T00:51:38.951Z,2.60
2023-03-24T00:54:10.908Z,2.80
2023-03-24T00:56:40.465Z,2.70
2023-03-24T00:59:09.898Z,2.70
2023-03-24T01:01:40.677Z,2.70
2023-03-24T01:04:10.212Z,2.67
2023-03-24T01:06:38.674Z,2.60
2023-03-24T01:09:07.123Z,2.50
2023-03-24T01:11:41.198Z,2.57
2023-03-24T01:14:10.964Z,2.60
2023-03-24T01:16:38.672Z,2.60
2023-03-24T01:19:08.497Z,2.57
2023-03-24T01:21:38.267Z,2.60
2023-03-24T01:24:06.491Z,2.60
2023-03-24T01:26:33.783Z,2.60
2023-03-24T01:29:01.052Z,2.50
2023-03-24T01:31:28.187Z,2.40
2023-03-24T01:33:55.309Z,2.60
2023-03-24T01:36:22.599Z,2.60
2023-03-24T01:38:49.618Z,2.50
2023-03-24T01:41:17.066Z,2.70
2023-03-24T01:43:47.282Z,2.43
2023-03-24T01:46:23.259Z,2.47
2023-03-24T01:49:06.915Z,2.50
2023-03-24T01:51:48.885Z,2.50
2023-03-24T01:54:37.225Z,2.60
2023-03-24T01:57:30.017Z,2.50
2023-03-24T02:00:08.007Z,2.50
2023-03-24T02:03:14.719Z,2.60
2023-03-24T02:05:53.413Z,2.60
2023-03-24T02:08:53.071Z,2.60
2023-03-24T02:11:24.174Z,2.53
2023-03-24T02:13:56.296Z,2.70
2023-03-24T02:17:04.659Z,2.57
2023-03-24T02:20:13.300Z,2.60
2023-03-24T02:23:30.199Z,2.53
2023-03-24T02:26:55.726Z,2.50
2023-03-24T02:30:01.969Z,2.60
2023-03-24T02:33:25.636Z,2.63
2023-03-24T02:36:54.490Z,2.60
2023-03-24T02:40:15.280Z,2.63
2023-03-24T02:43:25.167Z,2.70
2023-03-24T02:46:24.832Z,2.70
2023-03-24T02:49:36.795Z,2.60
2023-03-24T02:52:36.529Z,2.70
2023-03-24T02:55:32.980Z,2.57
2023-03-24T02:58:12.473Z,2.50
2023-03-24T03:01:10.470Z,2.63
2023-03-24T03:04:17.639Z,2.53
2023-03-24T03:06:53.762Z,2.70
2023-03-24T03:09:23.706Z,2.70
2023-03-24T03:11:57.451Z,2.60
2023-03-24T03:14:39.018Z,2.70
2023-03-24T03:17:21.209Z,2.70
2023-03-24T03:19:58.015Z,2.60
2023-03-24T03:22:33.801Z,2.67
2023-03-24T03:25:04.443Z,2.80
2023-03-24T03:27:39.055Z,2.67
2023-03-24T03:30:28.246Z,2.57
2023-03-24T03:33:10.614Z,2.60
2023-03-24T03:35:53.401Z,2.70
2023-03-24T03:38:56.819Z,2.60
2023-03-24T03:41:24.776Z,2.60
2023-03-24T03:43:53.107Z,2.63
2023-03-24T03:46:20.699Z,2.60
2023-03-24T03:48:49.840Z,2.77
2023-03-24T03:51:18.278Z,2.53
2023-03-24T03:54:01.201Z,2.60
2023-03-24T03:56:35.397Z,2.73
2023-03-24T03:59:33.615Z,2.60
2023-03-24T04:02:52.528Z,2.60
2023-03-24T04:05:49.862Z,2.50
2023-03-24T04:08:49.129Z,2.60
2023-03-24T04:11:42.838Z,2.57
2023-03-24T04:15:03.884Z,2.80
2023-03-24T04:18:52.984Z,2.57
2023-03-24T04:22:04.601Z,2.70
2023-03-24T04:25:05.900Z,2.70
2023-03-24T04:28:14.188Z,2.77
2023-03-24T04:30:44.558Z,2.90
2023-03-24T04:33:34.153Z,2.70
2023-03-24T04:36:42.517Z,2.60
2023-03-24T04:39:51.044Z,2.70
2023-03-24T04:42:45.278Z,2.70
2023-03-24T04:45:16.953Z,2.50
2023-03-24T04:48:04.571Z,2.53
2023-03-24T04:51:04.164Z,2.53
2023-03-24T04:53:47.935Z,2.50
2023-03-24T04:56:48.680Z,2.43
2023-03-24T04:59:23.043Z,2.40
2023-03-24T05:01:50.903Z,2.57
2023-03-24T05:04:29.820Z,2.53
2023-03-24T05:07:01.626Z,2.53
2023-03-24T05:09:31.380Z,2.50
2023-03-24T05:12:01.511Z,2.43
2023-03-24T05:14:32.748Z,2.57
2023-03-24T05:17:01.150Z,2.50
2023-03-24T05:19:29.115Z,2.50
2023-03-24T05:21:56.935Z,2.50
2023-03-24T05:24:24.053Z,2.50
2023-03-24T05:26:51.039Z,2.57
2023-03-24T05:29:20.948Z,2.60
2023-03-24T05:31:48.429Z,2.60
2023-03-24T05:34:18.615Z,2.50
2023-03-24T05:36:52.069Z,2.50
2023-03-24T05:39:21.565Z,2.50
2023-03-24T05:42:00.138Z,2.50
2023-03-24T05:44:27.540Z,2.57
2023-03-24T05:47:04.489Z,2.50
2023-03-24T05:49:32.064Z,2.47
2023-03-24T05:52:00.566Z,2.53
2023-03-24T05:54:28.238Z,2.40
2023-03-24T05:57:16.521Z,2.60
2023-03-24T06:00:15.379Z,2.43
2023-03-24T06:02:49.864Z,2.33
2023-03-24T06:05:32.442Z,2.40
2023-03-24T06:08:01.243Z,2.40
2023-03-24T06:10:31.517Z,2.40
2023-03-24T06:13:00.772Z,2.30
2023-03-24T06:15:28.708Z,2.37
2023-03-24T06:18:05.446Z,2.40
2023-03-24T06:20:35.892Z,2.40
2023-03-24T06:23:08.197Z,2.50
2023-03-24T06:25:47.485Z,2.30
2023-03-24T06:28:34.410Z,2.50
2023-03-24T06:31:07.348Z,2.60
2023-03-24T06:33:37.014Z,2.50
2023-03-24T06:36:06.652Z,2.47
2023-03-24T06:38:33.693Z,2.50
2023-03-24T06:41:03.523Z,2.50
2023-03-24T06:43:32.676Z,2.40
2023-03-24T06:46:00.580Z,2.60
2023-03-24T06:48:31.907Z,2.50
2023-03-24T06:51:03.832Z,2.50
2023-03-24T06:53:31.287Z,2.50
2023-03-24T06:55:58.734Z,2.47
2023-03-24T06:58:29.052Z,2.50
2023-03-24T07:01:04.972Z,2.50
2023-03-24T07:03:33.650Z,2.50
2023-03-24T07:06:22.762Z,2.50
2023-03-24T07:08:54.112Z,2.47
2023-03-24T07:11:25.269Z,2.50
2023-03-24T07:13:55.820Z,2.50
2023-03-24T07:16:23.573Z,2.50
2023-03-24T07:19:01.079Z,2.40
2023-03-24T07:21:30.741Z,2.40
2023-03-24T07:23:57.838Z,2.50
2023-03-24T07:26:34.890Z,2.40
2023-03-24T07:29:11.739Z,2.40
2023-03-24T07:32:01.218Z,2.50
2023-03-24T07:34:29.709Z,2.40
2023-03-24T07:36:56.746Z,2.50
2023-03-24T07:39:24.578Z,2.40
2023-03-24T07:41:52.429Z,2.40
2023-03-24T07:44:30.822Z,2.40
2023-03-24T07:47:00.585Z,2.50
2023-03-24T07:49:28.127Z,2.30
2023-03-24T07:52:06.336Z,2.30
2023-03-24T07:54:37.431Z,2.40
2023-03-24T07:57:05.606Z,2.43
2023-03-24T07:59:34.238Z,2.37
2023-03-24T08:02:05.759Z,2.40
2023-03-24T08:04:54.433Z,2.50
2023-03-24T08:07:53.141Z,2.37
2023-03-24T08:10:24.162Z,2.40
2023-03-24T08:12:52.258Z,2.37
2023-03-24T08:15:20.248Z,2.47
2023-03-24T08:17:49.891Z,2.37
2023-03-24T08:20:19.398Z,2.43
2023-03-24T08:22:49.673Z,2.30
2023-03-24T08:25:19.166Z,2.30
2023-03-24T08:27:47.293Z,2.30
2023-03-24T08:30:20.191Z,2.30
2023-03-24T08:32:52.002Z,2.40
2023-03-24T08:35:25.289Z,2.37
2023-03-24T08:37:54.739Z,2.37
2023-03-24T08:40:24.075Z,2.50
2023-03-24T08:43:01.345Z,2.40
2023-03-24T08:45:31.630Z,2.43
2023-03-24T08:48:02.582Z,2.40
2023-03-24T08:50:36.575Z,2.57
2023-03-24T08:53:04.607Z,2.53
2023-03-24T08:55:32.176Z,2.60
2023-03-24T08:58:00.066Z,2.50
2023-03-24T09:03:41.290Z,2.40
2023-03-24T09:06:09.393Z,2.47
2023-03-24T09:08:36.804Z,2.33
2023-03-24T09:11:05.699Z,2.30
2023-03-24T09:13:33.282Z,2.30
2023-03-24T09:16:03.899Z,2.50
2023-03-24T09:18:31.523Z,2.43
2023-03-24T09:20:59.003Z,2.50
2023-03-24T09:23:29.023Z,2.47
2023-03-24T09:25:56.518Z,2.40
2023-03-24T09:28:24.463Z,2.50
2023-03-24T09:30:57.077Z,2.47
2023-03-24T09:33:24.539Z,2.57
2023-03-24T09:36:00.638Z,2.47
2023-03-24T09:38:29.539Z,2.60
2023-03-24T09:41:03.557Z,2.70
2023-03-24T09:43:44.685Z,2.77
2023-03-24T09:46:31.219Z,2.60
2023-03-24T09:48:59.379Z,2.60
2023-03-24T09:51:29.654Z,2.40
2023-03-24T09:54:19.297Z,2.40
2023-03-24T09:56:51.376Z,2.50
2023-03-24T09:59:29.697Z,2.43
2023-03-24T10:01:57.990Z,2.47
2023-03-24T10:04:29.388Z,2.50
2023-03-24T10:07:25.471Z,2.40
2023-03-24T10:10:00.816Z,2.50
2023-03-24T10:12:48.285Z,2.40
2023-03-24T10:22:39.061Z,2.43
2023-03-24T10:25:23.341Z,2.63
2023-03-24T10:27:59.418Z,2.40
2023-03-24T10:30:34.684Z,2.50
2023-03-24T10:33:02.424Z,2.37
2023-03-24T10:35:37.512Z,2.43
2023-03-24T10:38:16.772Z,2.37
2023-03-24T10:40:46.811Z,2.30
2023-03-24T10:43:18.984Z,2.30
2023-03-24T10:45:52.111Z,2.43
2023-03-24T10:49:15.778Z,2.50
2023-03-24T10:52:03.735Z,2.40
2023-03-24T10:54:32.724Z,2.40
2023-03-24T10:57:00.424Z,2.40
2023-03-24T10:59:39.403Z,2.37
2023-03-24T11:02:09.404Z,2.33
2023-03-24T11:04:44.821Z,2.37
2023-03-24T11:07:20.971Z,2.40
2023-03-24T11:10:09.911Z,2.27
2023-03-24T11:12:57.724Z,2.20
2023-03-24T11:15:30.275Z,2.33
2023-03-24T11:18:08.151Z,2.23
2023-03-24T11:20:52.580Z,2.40
2023-03-24T11:23:38.017Z,2.30
2023-03-24T11:26:36.961Z,2.30
2023-03-24T11:29:16.789Z,2.30
2023-03-24T11:32:03.411Z,2.40
2023-03-24T11:34:42.319Z,2.30
2023-03-24T11:37:18.302Z,2.30
2023-03-24T11:40:09.917Z,2.33
2023-03-24T11:42:45.868Z,2.30
2023-03-24T11:45:40.848Z,2.27
2023-03-24T11:48:50.768Z,2.30
2023-03-24T11:51:30.667Z,2.20
2023-03-24T11:54:02.246Z,2.20
2023-03-24T11:56:51.957Z,2.20
2023-03-24T11:59:31.950Z,2.27
2023-03-24T12:02:08.302Z,2.27
2023-03-24T12:05:26.943Z,2.20
2023-03-24T12:08:37.401Z,2.20
2023-03-24T12:11:28.238Z,2.20
2023-03-24T12:14:00.910Z,2.10
2023-03-24T12:17:26.049Z,2.33
2023-03-24T12:20:23.599Z,2.10
2023-03-24T12:23:46.704Z,2.33
2023-03-24T12:26:28.468Z,2.27
2023-03-24T12:29:23.561Z,2.60
2023-03-24T12:32:11.601Z,2.40
2023-03-24T12:35:48.153Z,2.37
2023-03-24T12:39:02.717Z,2.20
2023-03-24T12:42:06.061Z,2.20
2023-03-24T12:45:11.393Z,2.23
2023-03-24T12:48:14.996Z,2.10
2023-03-24T12:51:46.271Z,2.30
2023-03-24T12:54:45.987Z,2.10
2023-03-24T12:57:19.847Z,2.23
2023-03-24T13:00:18.857Z,2.20
2023-03-24T13:02:58.571Z,2.30
2023-03-24T13:05:36.669Z,2.10
2023-03-24T13:08:19.326Z,2.20
2023-03-24T13:10:48.525Z,2.43
2023-03-24T13:13:46.341Z,2.70
2023-03-24T13:16:24.788Z,2.83
2023-03-24T13:18:56.380Z,3.00
2023-03-24T13:21:26.388Z,3.30
2023-03-24T13:24:15.090Z,3.23
2023-03-24T13:27:21.684Z,3.40
2023-03-24T13:30:31.217Z,3.30
2023-03-24T13:33:17.377Z,3.47
2023-03-24T13:36:18.917Z,3.23
2023-03-24T13:38:55.153Z,3.37
2023-03-24T13:41:30.653Z,3.47
2023-03-24T13:44:09.379Z,3.30
2023-03-24T13:46:40.957Z,3.20
2023-03-24T13:49:15.391Z,3.70
2023-03-24T13:51:46.892Z,3.60
2023-03-24T13:54:26.357Z,3.60
2023-03-24T13:57:20.651Z,4.00
2023-03-24T14:00:22.172Z,3.97
2023-03-24T14:03:17.166Z,3.83
2023-03-24T14:06:09.533Z,3.73
2023-03-24T14:08:51.981Z,3.90
2023-03-24T14:11:34.591Z,3.87
2023-03-24T14:14:26.050Z,3.43
2023-03-24T14:17:07.951Z,2.77
2023-03-24T14:20:08.925Z,2.70
2023-03-24T14:22:41.725Z,2.50
2023-03-24T14:25:14.977Z,2.50
2023-03-24T14:27:48.603Z,2.50
2023-03-24T14:30:34.196Z,2.40
2023-03-24T14:33:02.725Z,2.50
2023-03-24T14:35:44.219Z,2.40
2023-03-24T14:38:24.911Z,2.50
2023-03-24T14:41:06.791Z,2.50
2023-03-24T14:43:39.699Z,2.43
2023-03-24T14:46:37.460Z,2.27
2023-03-24T14:49:27.894Z,2.50
2023-03-24T14:52:42.821Z,2.53
2023-03-24T14:55:19.739Z,2.37
2023-03-24T14:57:59.810Z,2.40
2023-03-24T15:01:03.912Z,2.40
2023-03-24T15:04:07.478Z,2.20
2023-03-24T15:06:46.827Z,2.30
2023-03-24T15:09:18.542Z,2.37
2023-03-24T15:11:48.327Z,2.30
2023-03-24T15:14:26.281Z,2.30
2023-03-24T15:17:16.212Z,2.30
2023-03-24T15:19:43.802Z,2.40
2023-03-24T15:22:13.963Z,2.37
2023-03-24T15:24:43.112Z,2.30
2023-03-24T15:27:26.793Z,2.50
2023-03-24T15:29:59.254Z,2.50
2023-03-24T15:32:31.454Z,2.33
2023-03-24T15:35:06.064Z,2.60
2023-03-24T15:37:42.961Z,2.67
2023-03-24T15:40:31.762Z,2.60
2023-03-24T15:43:04.460Z,2.50
2023-03-24T15:45:37.618Z,2.50
2023-03-24T15:48:18.749Z,2.50
2023-03-24T15:51:02.838Z,2.60
2023-03-24T15:53:58.107Z,2.50
2023-03-24T15:56:31.718Z,2.50
2023-03-24T15:59:15.506Z,2.50
2023-03-24T16:01:45.092Z,2.50
2023-03-24T16:04:18.052Z,2.50
2023-03-24T16:06:54.338Z,2.53
2023-03-24T16:09:27.203Z,2.67
2023-03-24T16:11:55.276Z,2.70
2023-03-24T16:14:27.493Z,2.67
2023-03-24T16:17:00.000Z,2.77
2023-03-24T16:19:28.302Z,2.70
2023-03-24T16:21:55.933Z,2.63
2023-03-24T16:24:23.579Z,2.60
2023-03-24T16:26:50.613Z,2.63
2023-03-24T16:29:23.228Z,2.57
2023-03-24T16:31:55.316Z,2.57
2023-03-24T16:34:23.942Z,2.53
2023-03-24T16:36:54.551Z,2.60
2023-03-24T16:39:26.302Z,2.60
2023-03-24T16:41:54.858Z,2.83
2023-03-24T16:44:22.375Z,2.80
2023-03-24T16:46:53.794Z,2.70
2023-03-24T16:49:23.661Z,2.80
2023-03-24T16:51:52.735Z,2.60
2023-03-24T16:54:21.045Z,2.63
2023-03-24T16:56:48.817Z,2.70
2023-03-24T16:59:16.503Z,2.70
2023-03-24T17:01:46.430Z,2.70
2023-03-24T17:04:19.543Z,2.70
2023-03-24T17:06:54.058Z,2.77
2023-03-24T17:09:22.031Z,2.60
2023-03-24T17:11:53.729Z,2.57
2023-03-24T17:14:21.733Z,2.70
2023-03-24T17:16:52.488Z,2.50
2023-03-24T17:19:23.281Z,2.60
2023-03-24T17:22:03.732Z,2.57
2023-03-24T17:24:40.985Z,2.60
2023-03-24T17:27:19.524Z,2.50
2023-03-24T17:29:47.402Z,2.50
2023-03-24T17:32:14.909Z,2.57
2023-03-24T17:34:46.681Z,2.57
2023-03-24T17:37:13.823Z,2.60
2023-03-24T17:39:41.216Z,2.50
2023-03-24T17:42:08.338Z,2.60
2023-03-24T17:44:35.691Z,2.60
2023-03-24T17:47:02.775Z,2.70
2023-03-24T17:49:30.203Z,2.60
2023-03-24T17:51:57.294Z,2.57
2023-03-24T17:54:25.286Z,2.60
2023-03-24T17:56:52.302Z,2.47
2023-03-24T17:59:19.778Z,2.43
2023-03-24T18:01:47.177Z,2.50
2023-03-24T18:04:14.326Z,2.50
2023-03-24T18:06:42.262Z,2.60
2023-03-24T18:09:09.928Z,2.50
2023-03-24T18:11:37.099Z,2.60
2023-03-24T18:14:04.622Z,2.60
2023-03-24T18:16:34.986Z,2.60
2023-03-24T18:19:02.482Z,2.60
2023-03-24T18:21:29.608Z,2.60
2023-03-24T18:23:56.956Z,2.60
2023-03-24T18:26:24.306Z,2.60
2023-03-24T18:28:51.403Z,2.70
2023-03-24T18:31:22.959Z,2.60
2023-03-24T18:33:52.364Z,2.63
2023-03-24T18:36:26.208Z,2.50
2023-03-24T18:39:06.484Z,2.60
2023-03-24T18:41:38.476Z,2.53
2023-03-24T18:44:11.407Z,2.60
2023-03-24T18:46:39.078Z,2.57
2023-03-24T18:49:07.084Z,2.60
2023-03-24T18:51:35.468Z,2.50
2023-03-24T18:54:02.909Z,2.57
2023-03-24T18:56:30.076Z,2.50
2023-03-24T18:58:57.516Z,2.50
2023-03-24T19:01:24.831Z,2.50
2023-03-24T19:03:53.725Z,2.60
2023-03-24T19:06:26.418Z,2.60
2023-03-24T19:08:54.291Z,2.50
2023-03-24T19:11:21.349Z,2.50
2023-03-24T19:13:50.441Z,2.60
2023-03-24T19:16:20.389Z,2.60
2023-03-24T19:18:48.249Z,2.67
2023-03-24T19:21:16.926Z,2.60
2023-03-24T19:23:46.526Z,2.57
2023-03-24T19:26:16.472Z,2.63
2023-03-24T19:28:44.418Z,2.50
2023-03-24T19:31:17.558Z,2.50
2023-03-24T19:33:47.426Z,2.57
2023-03-24T19:36:15.615Z,2.53
2023-03-24T19:38:44.403Z,2.50
2023-03-24T19:41:14.993Z,2.50
2023-03-24T19:43:43.106Z,2.60
2023-03-24T19:46:10.885Z,2.50
2023-03-24T19:48:38.579Z,2.60
2023-03-24T19:51:06.076Z,2.60
2023-03-24T19:53:33.598Z,2.50
2023-03-24T19:56:02.286Z,2.60
2023-03-24T19:58:30.209Z,2.60
2023-03-24T20:00:57.808Z,2.67
2023-03-24T20:03:25.973Z,2.60
2023-03-24T20:05:54.228Z,2.50
2023-03-24T20:08:21.892Z,2.60
2023-03-24T20:10:49.341Z,2.60
2023-03-24T20:13:16.401Z,2.60
2023-03-24T20:15:46.448Z,2.70
2023-03-24T20:18:14.079Z,2.70
2023-03-24T20:20:41.476Z,2.60
2023-03-24T20:23:09.667Z,2.60
2023-03-24T20:25:41.320Z,2.70
2023-03-24T20:28:08.725Z,2.70
2023-03-24T20:30:35.777Z,2.80
2023-03-24T20:33:03.417Z,2.60
2023-03-24T20:35:35.904Z,2.60
2023-03-24T20:38:03.596Z,2.60
2023-03-24T20:40:31.142Z,2.70
2023-03-24T20:42:58.273Z,2.70
2023-03-24T20:45:25.703Z,2.60
2023-03-24T20:47:52.780Z,2.60
2023-03-24T20:50:20.457Z,2.67
2023-03-24T20:52:48.045Z,2.60
2023-03-24T20:55:15.204Z,2.70
2023-03-24T20:57:42.321Z,2.60
2023-03-24T21:00:13.583Z,2.67
2023-03-24T21:02:43.304Z,2.60
2023-03-24T21:05:11.368Z,2.60
2023-03-24T21:07:43.456Z,2.60
2023-03-24T21:10:11.247Z,2.60
2023-03-24T21:12:52.877Z,2.63
2023-03-24T21:15:24.635Z,2.60
2023-03-24T21:17:52.720Z,2.70
2023-03-24T21:20:20.844Z,2.70
2023-03-24T21:22:55.448Z,2.70
2023-03-24T21:25:31.865Z,2.63
2023-03-24T21:27:59.567Z,2.70
2023-03-24T21:30:28.899Z,2.70
2023-03-24T21:32:57.493Z,2.60
2023-03-24T21:35:25.384Z,2.70
2023-03-24T21:37:53.688Z,2.67
2023-03-24T21:40:25.239Z,2.57
2023-03-24T21:42:53.689Z,2.70
2023-03-24T21:45:23.443Z,2.60
2023-03-24T21:47:55.114Z,2.63
2023-03-24T21:50:25.660Z,2.60
2023-03-24T21:52:54.667Z,2.60
2023-03-24T21:55:25.236Z,2.70
2023-03-24T21:57:52.804Z,2.70
2023-03-24T22:00:24.431Z,2.67
2023-03-24T22:02:54.468Z,2.80
2023-03-24T22:05:25.899Z,2.70
2023-03-24T22:07:53.854Z,2.70
2023-03-24T22:10:22.766Z,2.67
2023-03-24T22:12:52.102Z,2.70
2023-03-24T22:15:20.916Z,2.57
2023-03-24T22:17:48.496Z,2.70
2023-03-24T22:20:16.400Z,2.70
2023-03-24T22:22:43.453Z,2.67
2023-03-24T22:25:15.436Z,2.77
2023-03-24T22:27:42.407Z,2.70
2023-03-24T22:30:13.327Z,2.80
2023-03-24T22:32:41.874Z,2.70
2023-03-24T22:35:09.522Z,2.60
2023-03-24T22:37:36.749Z,2.70
2023-03-24T22:40:05.584Z,2.70
2023-03-24T22:42:32.963Z,2.80
2023-03-24T22:45:00.389Z,2.70
2023-03-24T22:47:28.764Z,2.67
2023-03-24T22:49:56.224Z,2.70
2023-03-24T22:52:23.389Z,2.70
2023-03-24T22:54:50.364Z,2.60
2023-03-24T22:57:18.533Z,2.63
2023-03-24T22:59:45.609Z,2.67
2023-03-24T23:02:12.607Z,2.60
2023-03-24T23:04:40.329Z,2.67
2023-03-24T23:07:07.985Z,2.70
2023-03-24T23:09:36.470Z,2.70
2023-03-24T23:12:03.761Z,2.90
2023-03-24T23:14:31.251Z,2.83
2023-03-24T23:16:58.771Z,2.83
2023-03-24T23:19:26.325Z,2.70
2023-03-24T23:21:53.298Z,2.70
2023-03-24T23:24:20.485Z,2.73
2023-03-24T23:26:47.917Z,2.90
2023-03-24T23:29:14.882Z,2.80
2023-03-24T23:31:42.344Z,2.77
2023-03-24T23:34:11.746Z,2.70
2023-03-24T23:36:49.730Z,2.80
2023-03-24T23:39:17.198Z,2.77
2023-03-24T23:41:44.384Z,2.80
2023-03-24T23:44:11.419Z,2.80
2023-03-24T23:46:39.777Z,2.80
2023-03-24T23:49:09.815Z,2.70
2023-03-24T23:51:36.878Z,2.90
2023-03-24T23:54:04.104Z,2.80
2023-03-24T23:56:36.620Z,2.80
2023-03-24T23:59:07.098Z,2.80
